createdAt,value
2023-04-19T00:00:47.142Z,2.40
2023-04-19T00:03:14.903Z,3.03
2023-04-19T00:05:42.692Z,2.30
2023-04-19T00:08:10.064Z,1.90
2023-04-19T00:10:37.825Z,1.83
2023-04-19T00:13:04.719Z,2.33
2023-04-19T00:15:32.027Z,1.75
2023-04-19T00:17:59.107Z,2.25
2023-04-19T00:20:26.297Z,2.60
2023-04-19T00:22:53.210Z,2.42
2023-04-19T00:25:20.395Z,2.25
2023-04-19T00:27:47.470Z,2.08
2023-04-19T00:30:14.642Z,2.33
2023-04-19T00:32:44.499Z,1.98
2023-04-19T00:35:11.658Z,2.00
2023-04-19T00:37:39.028Z,2.47
2023-04-19T00:40:06.964Z,1.52
2023-04-19T00:42:37.245Z,1.92
2023-04-19T00:45:05.500Z,1.85
2023-04-19T00:47:32.997Z,2.45
2023-04-19T00:50:00.457Z,2.00
2023-04-19T00:52:27.878Z,2.72
2023-04-19T00:54:56.304Z,2.30
2023-04-19T00:57:24.106Z,2.55
2023-04-19T00:59:52.067Z,2.10
2023-04-19T01:02:19.579Z,2.42
2023-04-19T01:04:48.026Z,2.60
2023-04-19T01:07:15.247Z,1.98
2023-04-19T01:09:46.808Z,2.50
2023-04-19T01:12:14.335Z,2.50
2023-04-19T01:14:44.266Z,2.10
2023-04-19T01:17:11.672Z,2.08
2023-04-19T01:19:38.953Z,2.17
2023-04-19T01:22:06.616Z,2.67
2023-04-19T01:24:34.772Z,2.80
2023-04-19T01:27:02.808Z,1.92
2023-04-19T01:29:30.359Z,2.47
2023-04-19T01:31:57.498Z,2.55
2023-04-19T01:34:27.164Z,2.17
2023-04-19T01:36:54.431Z,2.35
2023-04-19T01:39:22.316Z,2.10
2023-04-19T01:41:49.529Z,2.28
2023-04-19T01:44:17.063Z,2.25
2023-04-19T01:46:44.647Z,2.60
2023-04-19T01:49:13.044Z,2.30
2023-04-19T01:51:43.418Z,2.50
2023-04-19T01:54:10.792Z,2.00
2023-04-19T01:56:37.845Z,2.30
2023-04-19T01:59:05.047Z,2.42
2023-04-19T02:01:32.420Z,2.33
2023-04-19T02:03:59.595Z,2.30
2023-04-19T02:06:27.249Z,2.00
2023-04-19T02:08:55.787Z,1.92
2023-04-19T02:11:23.607Z,2.30
2023-04-19T02:13:50.708Z,2.38
2023-04-19T02:16:18.230Z,2.30
2023-04-19T02:18:47.029Z,2.50
2023-04-19T02:21:14.655Z,2.95
2023-04-19T02:23:42.393Z,2.78
2023-04-19T02:26:10.412Z,2.20
2023-04-19T02:28:39.462Z,2.33
2023-04-19T02:31:07.753Z,2.78
2023-04-19T02:33:35.804Z,2.88
2023-04-19T02:36:03.108Z,3.65
2023-04-19T02:38:30.573Z,3.10
2023-04-19T02:40:58.947Z,2.63
2023-04-19T02:43:31.414Z,2.20
2023-04-19T02:46:00.397Z,3.45
2023-04-19T02:48:27.629Z,2.17
2023-04-19T02:50:58.213Z,3.03
2023-04-19T02:53:25.644Z,2.58
2023-04-19T02:55:53.017Z,2.22
2023-04-19T02:58:20.873Z,1.77
2023-04-19T03:01:03.064Z,2.10
2023-04-19T03:03:32.794Z,2.00
2023-04-19T03:06:01.083Z,2.00
2023-04-19T03:08:30.503Z,1.60
2023-04-19T03:10:58.991Z,2.08
2023-04-19T03:13:26.601Z,1.40
2023-04-19T03:15:54.090Z,1.65
2023-04-19T03:18:22.944Z,1.65
2023-04-19T03:20:51.836Z,1.70
2023-04-19T03:23:19.779Z,1.83
2023-04-19T03:25:46.893Z,2.03
2023-04-19T03:28:23.970Z,1.65
2023-04-19T03:31:11.573Z,1.77
2023-04-19T03:33:39.886Z,1.60
2023-04-19T03:36:07.856Z,1.55
2023-04-19T03:38:37.004Z,1.95
2023-04-19T03:41:06.359Z,1.73
2023-04-19T03:43:37.596Z,1.67
2023-04-19T03:46:04.907Z,1.27
2023-04-19T03:48:32.491Z,1.30
2023-04-19T03:50:59.567Z,1.88
2023-04-19T03:53:27.069Z,1.52
2023-04-19T03:55:54.662Z,1.50
2023-04-19T03:58:22.672Z,1.70
2023-04-19T04:00:56.336Z,1.60
2023-04-19T04:03:23.670Z,1.42
2023-04-19T04:05:51.137Z,1.65
2023-04-19T04:08:18.076Z,1.80
2023-04-19T04:10:45.021Z,1.85
2023-04-19T04:13:12.629Z,1.63
2023-04-19T04:15:58.407Z,1.33
2023-04-19T04:18:27.133Z,1.88
2023-04-19T04:20:55.633Z,1.60
2023-04-19T04:23:23.646Z,1.48
2023-04-19T04:26:02.028Z,1.92
2023-04-19T04:28:44.786Z,1.70
2023-04-19T04:31:13.281Z,1.48
2023-04-19T04:33:41.974Z,1.67
2023-04-19T04:36:12.149Z,1.70
2023-04-19T04:38:41.271Z,2.13
2023-04-19T04:41:08.869Z,1.80
2023-04-19T04:43:36.248Z,1.90
2023-04-19T04:46:04.289Z,1.70
2023-04-19T04:48:37.135Z,1.80
2023-04-19T04:51:06.408Z,1.90
2023-04-19T04:53:35.207Z,1.63
2023-04-19T04:56:05.416Z,1.73
2023-04-19T04:58:32.884Z,2.15
2023-04-19T05:01:09.400Z,1.33
2023-04-19T05:03:41.722Z,1.65
2023-04-19T05:06:14.528Z,2.28
2023-04-19T05:08:42.116Z,1.75
2023-04-19T05:11:16.703Z,1.80
2023-04-19T05:13:44.587Z,1.77
2023-04-19T05:16:12.976Z,1.80
2023-04-19T05:18:44.681Z,2.00
2023-04-19T05:21:12.482Z,2.00
2023-04-19T05:23:41.486Z,1.95
2023-04-19T05:26:13.092Z,1.65
2023-04-19T05:28:41.406Z,1.67
2023-04-19T05:31:21.350Z,2.13
2023-04-19T05:34:11.180Z,2.38
2023-04-19T05:36:38.856Z,2.58
2023-04-19T05:39:06.596Z,2.50
2023-04-19T05:41:34.195Z,2.42
2023-04-19T05:44:01.438Z,2.92
2023-04-19T05:46:29.589Z,2.17
2023-04-19T05:48:58.424Z,2.35
2023-04-19T05:51:44.762Z,2.05
2023-04-19T05:54:36.372Z,2.13
2023-04-19T05:57:06.618Z,2.00
2023-04-19T05:59:33.664Z,2.13
2023-04-19T06:02:04.755Z,2.03
2023-04-19T06:04:32.332Z,2.25
2023-04-19T06:07:00.538Z,2.35
2023-04-19T06:09:28.359Z,2.38
2023-04-19T06:11:57.226Z,2.20
2023-04-19T06:14:24.762Z,2.30
2023-04-19T06:16:52.822Z,2.22
2023-04-19T06:19:21.735Z,2.10
2023-04-19T06:21:49.844Z,2.28
2023-04-19T06:24:17.590Z,1.90
2023-04-19T06:26:45.355Z,2.30
2023-04-19T06:29:12.556Z,2.55
2023-04-19T06:31:39.812Z,1.85
2023-04-19T06:34:07.541Z,2.05
2023-04-19T06:36:35.081Z,2.28
2023-04-19T06:39:02.893Z,1.90
2023-04-19T06:41:30.475Z,1.80
2023-04-19T06:44:01.232Z,2.33
2023-04-19T06:46:28.934Z,1.80
2023-04-19T06:48:56.623Z,2.05
2023-04-19T06:51:24.249Z,2.10
2023-04-19T06:53:52.349Z,2.05
2023-04-19T06:56:47.614Z,1.58
2023-04-19T06:59:18.135Z,2.03
2023-04-19T07:01:46.862Z,2.13
2023-04-19T07:04:15.949Z,2.83
2023-04-19T07:06:44.824Z,2.20
2023-04-19T07:09:12.285Z,2.40
2023-04-19T07:11:40.490Z,2.20
2023-04-19T07:14:07.643Z,2.05
2023-04-19T07:16:35.019Z,2.15
2023-04-19T07:19:02.568Z,2.10
2023-04-19T07:21:33.820Z,2.17
2023-04-19T07:24:02.491Z,2.20
2023-04-19T07:26:30.544Z,2.00
2023-04-19T07:28:58.927Z,1.75
2023-04-19T07:31:26.836Z,2.03
2023-04-19T07:33:54.749Z,1.70
2023-04-19T07:36:21.851Z,1.65
2023-04-19T07:38:50.032Z,2.00
2023-04-19T07:41:18.662Z,2.28
2023-04-19T07:43:46.126Z,1.98
2023-04-19T07:46:16.649Z,2.33
2023-04-19T07:48:44.488Z,2.30
2023-04-19T07:51:14.549Z,1.80
2023-04-19T07:53:42.064Z,2.15
2023-04-19T07:56:12.760Z,1.85
2023-04-19T07:58:42.070Z,1.80
2023-04-19T08:01:09.341Z,1.90
2023-04-19T08:03:38.388Z,1.50
2023-04-19T08:06:08.435Z,1.70
2023-04-19T08:08:38.149Z,1.60
2023-04-19T08:11:06.464Z,1.60
2023-04-19T08:13:33.862Z,1.52
2023-04-19T08:18:32.013Z,1.83
2023-04-19T08:20:59.159Z,1.70
2023-04-19T08:23:32.047Z,1.80
2023-04-19T08:28:36.369Z,2.05
2023-04-19T08:31:08.500Z,1.80
2023-04-19T08:33:35.886Z,1.27
2023-04-19T08:36:02.836Z,1.80
2023-04-19T08:38:30.683Z,2.20
2023-04-19T08:40:58.796Z,1.90
2023-04-19T08:43:28.989Z,2.10
2023-04-19T08:46:00.832Z,1.60
2023-04-19T08:48:30.467Z,2.08
2023-04-19T08:51:04.882Z,1.50
2023-04-19T08:53:36.674Z,1.65
2023-04-19T08:56:17.488Z,1.90
2023-04-19T08:59:07.650Z,1.95
2023-04-19T09:01:43.693Z,2.10
2023-04-19T09:06:44.572Z,1.60
2023-04-19T09:12:00.550Z,1.77
2023-04-19T09:14:30.979Z,2.05
2023-04-19T09:17:18.384Z,1.90
2023-04-19T09:19:47.175Z,1.90
2023-04-19T09:22:18.079Z,2.00
2023-04-19T09:25:22.700Z,2.00
2023-04-19T09:27:36.661Z,1.70
2023-04-19T09:30:05.349Z,1.80
2023-04-19T09:32:48.170Z,1.65
2023-04-19T09:35:16.486Z,2.15
2023-04-19T09:38:05.808Z,1.83
2023-04-19T09:40:34.834Z,2.05
2023-04-19T09:43:17.864Z,1.60
2023-04-19T09:45:52.195Z,1.33
2023-04-19T09:48:20.758Z,1.50
2023-04-19T09:51:07.303Z,1.42
2023-04-19T09:53:40.932Z,1.60
2023-04-19T09:56:13.198Z,1.52
2023-04-19T09:58:49.508Z,1.60
2023-04-19T10:01:20.837Z,1.65
2023-04-19T10:03:51.140Z,1.52
2023-04-19T10:08:53.527Z,1.38
2023-04-19T10:11:22.783Z,2.03
2023-04-19T10:13:56.622Z,1.52
2023-04-19T10:16:24.045Z,1.75
2023-04-19T10:18:53.494Z,1.60
2023-04-19T10:21:22.527Z,1.58
2023-04-19T10:23:50.676Z,1.35
2023-04-19T10:26:17.625Z,1.67
2023-04-19T10:28:45.399Z,1.67
2023-04-19T10:31:14.034Z,1.77
2023-04-19T10:33:42.596Z,1.75
2023-04-19T10:36:11.922Z,1.77
2023-04-19T10:38:56.098Z,1.52
2023-04-19T10:41:24.002Z,1.23
2023-04-19T10:43:58.537Z,1.60
2023-04-19T10:46:29.420Z,1.77
2023-04-19T10:49:01.595Z,1.63
2023-04-19T10:51:37.367Z,2.00
2023-04-19T10:54:05.508Z,1.52
2023-04-19T10:56:35.835Z,1.55
2023-04-19T10:59:08.352Z,1.40
2023-04-19T11:01:44.568Z,1.40
2023-04-19T11:04:16.842Z,2.10
2023-04-19T11:06:53.609Z,1.30
2023-04-19T11:09:28.828Z,2.08
2023-04-19T11:12:11.267Z,1.40
2023-04-19T11:14:48.295Z,1.35
2023-04-19T11:17:28.473Z,1.92
2023-04-19T11:20:03.442Z,1.40
2023-04-19T11:22:35.585Z,1.70
2023-04-19T11:25:06.405Z,1.65
2023-04-19T11:27:35.380Z,1.52
2023-04-19T11:30:08.629Z,1.75
2023-04-19T11:32:36.596Z,1.60
2023-04-19T11:35:09.205Z,1.63
2023-04-19T11:37:38.565Z,1.80
2023-04-19T11:40:09.714Z,1.75
2023-04-19T11:42:37.547Z,1.48
2023-04-19T11:45:06.171Z,3.30
2023-04-19T11:47:48.301Z,1.65
2023-04-19T11:50:34.055Z,1.95
2023-04-19T11:53:11.449Z,1.92
2023-04-19T11:55:38.878Z,1.73
2023-04-19T11:58:10.109Z,1.58
2023-04-19T12:00:37.392Z,1.83
2023-04-19T12:03:05.526Z,1.55
2023-04-19T12:05:33.129Z,1.90
2023-04-19T12:08:10.618Z,2.13
2023-04-19T12:10:38.466Z,1.85
2023-04-19T12:13:18.933Z,2.50
2023-04-19T12:15:49.977Z,2.03
2023-04-19T12:18:18.450Z,2.28
2023-04-19T12:20:48.117Z,1.98
2023-04-19T12:23:16.834Z,1.95
2023-04-19T12:25:50.248Z,1.85
2023-04-19T12:28:17.503Z,1.73
2023-04-19T12:30:45.740Z,1.67
2023-04-19T12:33:13.642Z,2.10
2023-04-19T12:35:41.449Z,1.65
2023-04-19T12:38:10.020Z,1.60
2023-04-19T12:40:37.821Z,2.15
2023-04-19T12:43:08.696Z,1.60
2023-04-19T12:45:36.507Z,2.10
2023-04-19T12:48:04.283Z,2.47
2023-04-19T12:50:31.757Z,2.83
2023-04-19T12:52:59.345Z,1.50
2023-04-19T12:55:26.762Z,2.08
2023-04-19T12:57:54.263Z,2.17
2023-04-19T13:00:22.348Z,2.00
2023-04-19T13:02:50.774Z,1.83
2023-04-19T13:05:19.875Z,3.38
2023-04-19T13:07:47.683Z,2.03
2023-04-19T13:10:16.386Z,2.88
2023-04-19T13:12:44.504Z,2.10
2023-04-19T13:15:12.660Z,2.03
2023-04-19T13:17:40.195Z,2.28
2023-04-19T13:20:08.489Z,2.90
2023-04-19T13:22:36.280Z,1.98
2023-04-19T13:25:04.532Z,2.15
2023-04-19T13:27:32.058Z,2.35
2023-04-19T13:29:58.963Z,1.75
2023-04-19T13:32:26.119Z,1.80
2023-04-19T13:34:54.225Z,1.95
2023-04-19T13:37:21.628Z,1.70
2023-04-19T13:39:49.317Z,2.20
2023-04-19T13:42:18.967Z,2.17
2023-04-19T13:44:46.424Z,2.20
2023-04-19T13:47:13.847Z,2.50
2023-04-19T13:49:41.364Z,2.30
2023-04-19T13:52:10.191Z,2.28
2023-04-19T13:54:37.383Z,2.40
2023-04-19T13:57:04.366Z,1.73
2023-04-19T13:59:31.668Z,2.45
2023-04-19T14:01:59.458Z,2.50
2023-04-19T14:04:27.235Z,2.50
2023-04-19T14:06:54.894Z,2.05
2023-04-19T14:09:22.035Z,2.17
2023-04-19T14:11:49.712Z,2.83
2023-04-19T14:14:16.964Z,2.33
2023-04-19T14:16:45.153Z,2.45
2023-04-19T14:19:12.161Z,2.28
2023-04-19T14:21:39.025Z,2.80
2023-04-19T14:24:06.920Z,2.63
2023-04-19T14:26:34.173Z,2.08
2023-04-19T14:29:01.579Z,2.60
2023-04-19T14:31:29.049Z,3.03
2023-04-19T14:33:56.798Z,2.78
2023-04-19T14:36:24.175Z,2.80
2023-04-19T14:38:52.179Z,3.13
2023-04-19T14:41:19.642Z,3.00
2023-04-19T14:43:46.936Z,3.03
2023-04-19T14:46:14.629Z,3.28
2023-04-19T14:48:41.900Z,2.40
2023-04-19T14:51:08.770Z,2.60
2023-04-19T14:53:35.978Z,3.47
2023-04-19T14:56:07.765Z,2.35
2023-04-19T14:58:35.329Z,2.60
2023-04-19T15:01:11.912Z,5.80
2023-04-19T15:03:39.607Z,4.22
2023-04-19T15:06:08.085Z,3.50
2023-04-19T15:08:35.113Z,3.35
2023-04-19T15:11:02.573Z,3.28
2023-04-19T15:13:30.131Z,2.90
2023-04-19T15:16:12.210Z,2.95
2023-04-19T15:18:41.074Z,3.35
2023-04-19T15:21:08.699Z,2.75
2023-04-19T15:23:36.182Z,2.97
2023-04-19T15:26:03.909Z,3.38
2023-04-19T15:28:36.908Z,3.35
2023-04-19T15:31:06.612Z,2.58
2023-04-19T15:33:35.477Z,2.63
2023-04-19T15:36:03.457Z,2.90
2023-04-19T15:38:32.187Z,3.55
2023-04-19T15:41:01.376Z,2.88
2023-04-19T15:43:29.134Z,2.35
2023-04-19T15:46:24.622Z,2.25
2023-04-19T15:48:51.648Z,2.47
2023-04-19T15:51:19.185Z,2.63
2023-04-19T15:53:46.566Z,2.38
2023-04-19T15:56:13.410Z,2.60
2023-04-19T15:58:40.731Z,2.45
2023-04-19T16:01:11.219Z,2.45
2023-04-19T16:03:39.442Z,2.25
2023-04-19T16:06:07.275Z,1.70
2023-04-19T16:08:34.632Z,1.90
2023-04-19T16:11:01.777Z,2.45
2023-04-19T16:13:31.240Z,1.88
2023-04-19T16:15:58.751Z,2.05
2023-04-19T16:18:26.565Z,1.92
2023-04-19T16:20:55.177Z,2.45
2023-04-19T16:23:24.519Z,2.50
2023-04-19T16:25:51.905Z,1.90
2023-04-19T16:28:20.220Z,2.33
2023-04-19T16:30:47.584Z,1.90
2023-04-19T16:33:16.035Z,3.28
2023-04-19T16:35:43.267Z,2.35
2023-04-19T16:38:11.226Z,2.90
2023-04-19T16:40:38.742Z,2.70
2023-04-19T16:43:06.812Z,3.25
2023-04-19T16:45:34.573Z,3.13
2023-04-19T16:48:02.296Z,3.75
2023-04-19T16:50:29.692Z,3.53
2023-04-19T16:53:00.301Z,4.50
2023-04-19T16:55:27.610Z,3.55
2023-04-19T16:57:56.510Z,3.85
2023-04-19T17:00:24.291Z,3.63
2023-04-19T17:02:53.543Z,4.03
2023-04-19T17:05:20.932Z,4.03
2023-04-19T17:07:48.309Z,4.22
2023-04-19T17:10:16.569Z,3.50
2023-04-19T17:12:44.369Z,3.30
2023-04-19T17:15:11.927Z,2.17
2023-04-19T17:17:39.161Z,2.30
2023-04-19T17:20:07.011Z,2.90
2023-04-19T17:22:34.342Z,3.85
2023-04-19T17:25:02.411Z,2.90
2023-04-19T17:27:29.900Z,3.15
2023-04-19T17:29:56.982Z,3.15
2023-04-19T17:32:23.790Z,3.33
2023-04-19T17:34:50.656Z,2.55
2023-04-19T17:37:19.084Z,2.70
2023-04-19T17:39:46.340Z,3.88
2023-04-19T17:42:13.326Z,4.78
2023-04-19T17:44:40.616Z,4.00
2023-04-19T17:47:07.736Z,4.63
2023-04-19T17:49:34.682Z,5.57
2023-04-19T17:52:01.497Z,5.38
2023-04-19T17:54:28.334Z,4.93
2023-04-19T17:56:55.522Z,3.70
2023-04-19T17:59:22.696Z,3.80
2023-04-19T18:01:49.855Z,3.33
2023-04-19T18:04:20.060Z,3.53
2023-04-19T18:06:47.287Z,4.18
2023-04-19T18:09:15.668Z,3.90
2023-04-19T18:11:43.316Z,6.13
2023-04-19T18:14:10.799Z,13.93
2023-04-19T18:16:38.007Z,7.28
2023-04-19T18:19:05.158Z,4.72
2023-04-19T18:21:33.686Z,3.30
2023-04-19T18:24:01.268Z,5.22
2023-04-19T18:26:41.306Z,6.00
2023-04-19T18:29:09.697Z,3.33
2023-04-19T18:31:37.270Z,4.40
2023-04-19T18:34:04.679Z,5.18
2023-04-19T18:36:32.359Z,4.97
2023-04-19T18:38:59.521Z,3.35
2023-04-19T18:41:27.212Z,3.90
2023-04-19T18:44:24.780Z,4.88
2023-04-19T18:46:42.346Z,4.35
2023-04-19T18:49:10.793Z,3.28
2023-04-19T18:51:39.444Z,3.45
2023-04-19T18:54:06.702Z,3.25
2023-04-19T18:59:04.535Z,4.10
2023-04-19T19:01:33.431Z,2.08
2023-04-19T19:06:33.043Z,2.33
2023-04-19T19:09:00.715Z,2.17
2023-04-19T19:11:52.021Z,3.20
2023-04-19T19:14:15.455Z,3.13
2023-04-19T19:16:51.554Z,3.63
2023-04-19T19:19:22.876Z,3.70
2023-04-19T19:21:50.143Z,3.65
2023-04-19T19:24:20.023Z,2.33
2023-04-19T19:26:48.093Z,3.00
2023-04-19T19:29:16.776Z,1.90
2023-04-19T19:31:44.083Z,2.28
2023-04-19T19:34:25.273Z,1.90
2023-04-19T19:36:56.514Z,2.20
2023-04-19T19:39:24.202Z,1.80
2023-04-19T19:42:05.299Z,2.08
2023-04-19T19:44:33.072Z,1.98
2023-04-19T19:46:59.953Z,3.15
2023-04-19T19:49:27.590Z,2.60
2023-04-19T19:51:59.154Z,2.80
2023-04-19T19:54:27.264Z,2.03
2023-04-19T19:59:30.183Z,2.35
2023-04-19T20:01:59.407Z,2.50
2023-04-19T20:04:26.662Z,1.73
2023-04-19T20:09:24.305Z,2.33
2023-04-19T20:11:51.613Z,2.05
2023-04-19T20:14:18.565Z,2.15
2023-04-19T20:16:45.875Z,1.92
2023-04-19T20:19:13.258Z,2.17
2023-04-19T20:21:40.061Z,1.80
2023-04-19T20:24:07.898Z,2.17
2023-04-19T20:26:35.603Z,2.55
2023-04-19T20:29:02.448Z,3.22
2023-04-19T20:31:29.577Z,3.50
2023-04-19T20:33:57.148Z,2.65
2023-04-19T20:36:24.748Z,2.63
2023-04-19T20:38:52.072Z,2.78
2023-04-19T20:41:19.417Z,2.25
2023-04-19T20:43:46.759Z,2.70
2023-04-19T20:46:13.702Z,2.30
2023-04-19T20:48:41.256Z,2.05
2023-04-19T20:51:08.249Z,2.38
2023-04-19T20:53:35.706Z,2.22
2023-04-19T20:56:03.271Z,2.00
2023-04-19T20:58:32.259Z,2.17
2023-04-19T21:00:59.473Z,2.72
2023-04-19T21:03:26.774Z,2.13
2023-04-19T21:05:55.926Z,2.92
2023-04-19T21:08:24.216Z,2.40
2023-04-19T21:10:51.265Z,1.73
2023-04-19T21:13:18.389Z,2.00
2023-04-19T21:15:45.566Z,2.15
2023-04-19T21:18:12.388Z,2.20
2023-04-19T21:20:39.831Z,1.65
2023-04-19T21:23:07.188Z,2.00
2023-04-19T21:25:34.637Z,2.10
2023-04-19T21:28:01.724Z,2.25
2023-04-19T21:30:28.822Z,2.60
2023-04-19T21:32:55.791Z,2.38
2023-04-19T21:35:23.093Z,2.40
2023-04-19T21:37:50.605Z,2.67
2023-04-19T21:40:17.674Z,2.05
2023-04-19T21:42:44.910Z,1.98
2023-04-19T21:45:12.102Z,1.90
2023-04-19T21:47:39.520Z,2.20
2023-04-19T21:50:07.755Z,2.40
2023-04-19T21:52:35.256Z,1.92
2023-04-19T21:55:02.696Z,2.17
2023-04-19T21:57:31.058Z,2.70
2023-04-19T21:59:58.341Z,1.75
2023-04-19T22:02:25.855Z,2.15
2023-04-19T22:04:54.216Z,2.22
2023-04-19T22:07:24.195Z,1.92
2023-04-19T22:09:52.679Z,2.30
2023-04-19T22:12:19.989Z,1.90
2023-04-19T22:14:46.986Z,2.67
2023-04-19T22:17:14.381Z,2.50
2023-04-19T22:19:41.578Z,2.38
2023-04-19T22:22:08.936Z,1.70
2023-04-19T22:24:43.894Z,3.05
2023-04-19T22:27:20.999Z,2.35
2023-04-19T22:29:48.365Z,1.80
2023-04-19T22:32:15.244Z,2.47
2023-04-19T22:34:42.518Z,2.08
2023-04-19T22:37:10.044Z,2.10
2023-04-19T22:39:37.153Z,1.90
2023-04-19T22:42:04.239Z,2.17
2023-04-19T22:44:31.523Z,2.30
2023-04-19T22:46:59.725Z,2.05
2023-04-19T22:49:27.692Z,3.28
2023-04-19T22:51:55.147Z,2.65
2023-04-19T22:54:22.392Z,2.30
2023-04-19T22:56:49.841Z,2.50
2023-04-19T22:59:17.654Z,3.15
2023-04-19T23:01:45.140Z,2.13
2023-04-19T23:04:14.909Z,1.98
2023-04-19T23:06:44.310Z,2.15
2023-04-19T23:09:15.759Z,2.33
2023-04-19T23:11:45.059Z,2.63
2023-04-19T23:14:12.977Z,1.73
2023-04-19T23:16:40.791Z,2.05
2023-04-19T23:19:08.170Z,2.17
2023-04-19T23:21:34.972Z,1.90
2023-04-19T23:24:02.215Z,1.88
2023-04-19T23:26:30.400Z,2.13
2023-04-19T23:28:57.571Z,1.90
2023-04-19T23:31:24.725Z,1.50
2023-04-19T23:33:53.029Z,2.03
2023-04-19T23:36:20.086Z,1.80
2023-04-19T23:38:49.927Z,2.00
2023-04-19T23:41:17.284Z,1.67
2023-04-19T23:43:46.491Z,1.67
2023-04-19T23:46:14.182Z,1.77
2023-04-19T23:48:41.331Z,1.95
2023-04-19T23:51:08.853Z,1.77
2023-04-19T23:53:36.050Z,1.70
2023-04-19T23:56:03.116Z,1.80
2023-04-19T23:58:30.064Z,1.58
